sensor_id;sensor_type;location;lat;lon;timestamp;pressure;altitude;pressure_sealevel;temperature;humidity
35507;BME280;36461;52.018;21.036;2023-04-06T00:00:26;100892.73;;;1.68;56.66
35507;BME280;36461;52.018;21.036;2023-04-06T00:03:14;100894.61;;;1.67;56.48
35507;BME280;36461;52.018;21.036;2023-04-06T00:05:42;100895.13;;;1.68;56.65
35507;BME280;36461;52.018;21.036;2023-04-06T00:08:10;100893.77;;;1.68;56.31
35507;BME280;36461;52.018;21.036;2023-04-06T00:10:39;100888.83;;;1.69;56.31
35507;BME280;36461;52.018;21.036;2023-04-06T00:13:07;100887.84;;;1.72;56.23
35507;BME280;36461;52.018;21.036;2023-04-06T00:15:35;100887.65;;;1.71;55.67
35507;BME280;36461;52.018;21.036;2023-04-06T00:18:03;100882.54;;;1.70;55.66
35507;BME280;36461;52.018;21.036;2023-04-06T00:20:32;100880.49;;;1.71;55.82
35507;BME280;36461;52.018;21.036;2023-04-06T00:23:00;100877.78;;;1.74;55.45
35507;BME280;36461;52.018;21.036;2023-04-06T00:25:29;100876.08;;;1.74;55.74
35507;BME280;36461;52.018;21.036;2023-04-06T00:27:58;100871.98;;;1.74;55.61
35507;BME280;36461;52.018;21.036;2023-04-06T00:30:26;100873.14;;;1.71;55.53
35507;BME280;36461;52.018;21.036;2023-04-06T00:32:54;100870.39;;;1.68;55.35
35507;BME280;36461;52.018;21.036;2023-04-06T00:35:22;100869.31;;;1.65;55.49
35507;BME280;36461;52.018;21.036;2023-04-06T00:37:52;100864.20;;;1.64;55.47
35507;BME280;36461;52.018;21.036;2023-04-06T00:40:20;100863.17;;;1.63;55.62
35507;BME280;36461;52.018;21.036;2023-04-06T00:42:49;100863.50;;;1.63;55.49
35507;BME280;36461;52.018;21.036;2023-04-06T00:45:17;100862.61;;;1.60;55.67
35507;BME280;36461;52.018;21.036;2023-04-06T00:47:46;100860.71;;;1.59;55.63
35507;BME280;36461;52.018;21.036;2023-04-06T00:50:15;100858.85;;;1.59;55.65
35507;BME280;36461;52.018;21.036;2023-04-06T00:52:43;100854.92;;;1.59;55.65
35507;BME280;36461;52.018;21.036;2023-04-06T00:55:12;100852.86;;;1.58;55.62
35507;BME280;36461;52.018;21.036;2023-04-06T00:57:42;100853.55;;;1.59;55.60
35507;BME280;36461;52.018;21.036;2023-04-06T01:00:11;100852.52;;;1.58;55.42
35507;BME280;36461;52.018;21.036;2023-04-06T01:02:42;100850.09;;;1.55;55.60
35507;BME280;36461;52.018;21.036;2023-04-06T01:05:14;100854.18;;;1.54;55.45
35507;BME280;36461;52.018;21.036;2023-04-06T01:08:00;100851.29;;;1.54;55.75
35507;BME280;36461;52.018;21.036;2023-04-06T01:10:29;100855.86;;;1.52;55.60
35507;BME280;36461;52.018;21.036;2023-04-06T01:13:12;100853.81;;;1.53;55.43
35507;BME280;36461;52.018;21.036;2023-04-06T01:15:46;100849.41;;;1.54;55.53
35507;BME280;36461;52.018;21.036;2023-04-06T01:18:18;100849.60;;;1.56;55.85
35507;BME280;36461;52.018;21.036;2023-04-06T01:20:55;100850.10;;;1.56;55.38
35507;BME280;36461;52.018;21.036;2023-04-06T01:23:27;100848.03;;;1.53;55.43
35507;BME280;36461;52.018;21.036;2023-04-06T01:25:58;100846.83;;;1.53;55.66
35507;BME280;36461;52.018;21.036;2023-04-06T01:28:30;100845.98;;;1.54;55.74
35507;BME280;36461;52.018;21.036;2023-04-06T01:31:13;100840.35;;;1.54;55.68
35507;BME280;36461;52.018;21.036;2023-04-06T01:33:48;100841.38;;;1.53;55.52
35507;BME280;36461;52.018;21.036;2023-04-06T01:36:22;100833.86;;;1.53;55.24
35507;BME280;36461;52.018;21.036;2023-04-06T01:39:02;100831.44;;;1.49;55.50
35507;BME280;36461;52.018;21.036;2023-04-06T01:41:37;100828.84;;;1.46;55.24
35507;BME280;36461;52.018;21.036;2023-04-06T01:44:09;100828.98;;;1.44;55.50
35507;BME280;36461;52.018;21.036;2023-04-06T01:46:42;100827.44;;;1.43;55.44
35507;BME280;36461;52.018;21.036;2023-04-06T01:49:17;100826.57;;;1.42;55.48
35507;BME280;36461;52.018;21.036;2023-04-06T01:51:54;100828.77;;;1.41;55.72
35507;BME280;36461;52.018;21.036;2023-04-06T01:54:27;100824.00;;;1.41;55.70
35507;BME280;36461;52.018;21.036;2023-04-06T01:57:09;100821.77;;;1.41;55.62
35507;BME280;36461;52.018;21.036;2023-04-06T01:59:48;100821.27;;;1.40;55.65
35507;BME280;36461;52.018;21.036;2023-04-06T02:02:26;100817.66;;;1.39;55.89
35507;BME280;36461;52.018;21.036;2023-04-06T02:05:02;100819.55;;;1.40;56.02
35507;BME280;36461;52.018;21.036;2023-04-06T02:07:34;100817.17;;;1.40;56.27
35507;BME280;36461;52.018;21.036;2023-04-06T02:10:12;100812.40;;;1.41;55.82
35507;BME280;36461;52.018;21.036;2023-04-06T02:12:45;100809.83;;;1.39;56.03
35507;BME280;36461;52.018;21.036;2023-04-06T02:15:20;100809.13;;;1.39;56.42
35507;BME280;36461;52.018;21.036;2023-04-06T02:25:24;100798.20;;;1.23;56.99
35507;BME280;36461;52.018;21.036;2023-04-06T02:27:53;100796.02;;;1.12;57.32
35507;BME280;36461;52.018;21.036;2023-04-06T02:30:21;100790.77;;;1.02;57.40
35507;BME280;36461;52.018;21.036;2023-04-06T02:32:49;100790.64;;;0.92;57.81
35507;BME280;36461;52.018;21.036;2023-04-06T02:35:18;100787.61;;;0.84;57.58
35507;BME280;36461;52.018;21.036;2023-04-06T02:37:47;100785.66;;;0.77;58.14
35507;BME280;36461;52.018;21.036;2023-04-06T02:40:15;100785.07;;;0.72;58.22
35507;BME280;36461;52.018;21.036;2023-04-06T02:42:43;100783.14;;;0.68;58.60
35507;BME280;36461;52.018;21.036;2023-04-06T02:45:12;100781.21;;;0.65;58.93
35507;BME280;36461;52.018;21.036;2023-04-06T02:47:44;100784.60;;;0.63;59.10
35507;BME280;36461;52.018;21.036;2023-04-06T02:50:14;100784.75;;;0.62;59.12
35507;BME280;36461;52.018;21.036;2023-04-06T02:52:49;100785.71;;;0.59;59.13
35507;BME280;36461;52.018;21.036;2023-04-06T02:55:17;100786.54;;;0.56;59.40
35507;BME280;36461;52.018;21.036;2023-04-06T02:57:47;100785.66;;;0.55;59.48
35507;BME280;36461;52.018;21.036;2023-04-06T03:00:16;100783.77;;;0.53;59.66
35507;BME280;36461;52.018;21.036;2023-04-06T03:02:44;100786.11;;;0.50;59.82
35507;BME280;36461;52.018;21.036;2023-04-06T03:05:15;100784.52;;;0.46;59.82
35507;BME280;36461;52.018;21.036;2023-04-06T03:07:44;100783.97;;;0.44;60.18
35507;BME280;36461;52.018;21.036;2023-04-06T03:10:17;100786.66;;;0.42;59.92
35507;BME280;36461;52.018;21.036;2023-04-06T03:12:47;100788.83;;;0.39;59.97
35507;BME280;36461;52.018;21.036;2023-04-06T03:15:17;100790.80;;;0.36;59.98
35507;BME280;36461;52.018;21.036;2023-04-06T03:17:50;100791.50;;;0.35;60.56
35507;BME280;36461;52.018;21.036;2023-04-06T03:20:30;100788.04;;;0.32;60.46
35507;BME280;36461;52.018;21.036;2023-04-06T03:22:58;100792.77;;;0.29;60.60
35507;BME280;36461;52.018;21.036;2023-04-06T03:25:29;100792.38;;;0.27;60.39
35507;BME280;36461;52.018;21.036;2023-04-06T03:28:01;100793.38;;;0.25;60.23
35507;BME280;36461;52.018;21.036;2023-04-06T03:30:29;100791.30;;;0.24;60.49
35507;BME280;36461;52.018;21.036;2023-04-06T03:32:58;100792.81;;;0.23;60.73
35507;BME280;36461;52.018;21.036;2023-04-06T03:35:27;100792.95;;;0.21;60.77
35507;BME280;36461;52.018;21.036;2023-04-06T03:37:57;100792.94;;;0.20;60.50
35507;BME280;36461;52.018;21.036;2023-04-06T03:40:25;100793.10;;;0.19;61.01
35507;BME280;36461;52.018;21.036;2023-04-06T03:42:53;100792.50;;;0.14;61.04
35507;BME280;36461;52.018;21.036;2023-04-06T03:45:22;100794.36;;;0.13;61.09
35507;BME280;36461;52.018;21.036;2023-04-06T03:47:50;100792.65;;;0.12;60.73
35507;BME280;36461;52.018;21.036;2023-04-06T03:50:19;100794.18;;;0.12;60.93
35507;BME280;36461;52.018;21.036;2023-04-06T03:52:47;100787.86;;;0.12;60.81
35507;BME280;36461;52.018;21.036;2023-04-06T03:55:15;100787.17;;;0.11;61.03
35507;BME280;36461;52.018;21.036;2023-04-06T03:57:43;100786.50;;;0.11;61.17
35507;BME280;36461;52.018;21.036;2023-04-06T04:00:12;100787.52;;;0.11;61.28
35507;BME280;36461;52.018;21.036;2023-04-06T04:02:40;100788.20;;;0.11;60.96
35507;BME280;36461;52.018;21.036;2023-04-06T04:05:09;100790.60;;;0.12;60.89
35507;BME280;36461;52.018;21.036;2023-04-06T04:07:37;100789.59;;;0.13;61.07
35507;BME280;36461;52.018;21.036;2023-04-06T04:10:06;100787.92;;;0.15;61.03
35507;BME280;36461;52.018;21.036;2023-04-06T04:12:34;100784.05;;;0.17;60.91
35507;BME280;36461;52.018;21.036;2023-04-06T04:15:03;100788.31;;;0.18;60.85
35507;BME280;36461;52.018;21.036;2023-04-06T04:17:31;100785.27;;;0.19;60.98
35507;BME280;36461;52.018;21.036;2023-04-06T04:20:00;100786.33;;;0.21;60.80
35507;BME280;36461;52.018;21.036;2023-04-06T04:22:27;100789.46;;;0.25;60.87
35507;BME280;36461;52.018;21.036;2023-04-06T04:24:56;100787.83;;;0.29;60.80
35507;BME280;36461;52.018;21.036;2023-04-06T04:27:24;100783.48;;;0.34;60.55
35507;BME280;36461;52.018;21.036;2023-04-06T04:29:53;100783.91;;;0.40;60.80
35507;BME280;36461;52.018;21.036;2023-04-06T04:32:21;100783.66;;;0.47;60.48
35507;BME280;36461;52.018;21.036;2023-04-06T04:34:49;100780.54;;;0.55;60.60
35507;BME280;36461;52.018;21.036;2023-04-06T04:37:30;100779.66;;;0.64;60.81
35507;BME280;36461;52.018;21.036;2023-04-06T04:39:58;100772.29;;;0.72;60.71
35507;BME280;36461;52.018;21.036;2023-04-06T04:42:28;100772.41;;;0.79;60.39
35507;BME280;36461;52.018;21.036;2023-04-06T04:44:56;100770.29;;;0.87;60.18
35507;BME280;36461;52.018;21.036;2023-04-06T04:47:35;100769.02;;;0.94;60.10
35507;BME280;36461;52.018;21.036;2023-04-06T04:50:04;100768.41;;;1.00;60.06
35507;BME280;36461;52.018;21.036;2023-04-06T04:52:32;100766.45;;;1.07;59.94
35507;BME280;36461;52.018;21.036;2023-04-06T04:55:13;100766.33;;;1.11;59.88
35507;BME280;36461;52.018;21.036;2023-04-06T04:57:42;100763.14;;;1.15;59.87
35507;BME280;36461;52.018;21.036;2023-04-06T05:00:11;100760.82;;;1.20;59.87
35507;BME280;36461;52.018;21.036;2023-04-06T05:02:41;100764.80;;;1.24;59.70
35507;BME280;36461;52.018;21.036;2023-04-06T05:05:15;100762.63;;;1.29;59.55
35507;BME280;36461;52.018;21.036;2023-04-06T05:07:43;100764.39;;;1.33;59.59
35507;BME280;36461;52.018;21.036;2023-04-06T05:10:19;100761.71;;;1.38;59.13
35507;BME280;36461;52.018;21.036;2023-04-06T05:12:52;100759.20;;;1.41;59.14
35507;BME280;36461;52.018;21.036;2023-04-06T05:15:21;100764.19;;;1.45;58.77
35507;BME280;36461;52.018;21.036;2023-04-06T05:17:50;100765.41;;;1.48;58.61
35507;BME280;36461;52.018;21.036;2023-04-06T05:20:21;100764.46;;;1.56;58.55
35507;BME280;36461;52.018;21.036;2023-04-06T05:22:50;100767.62;;;1.63;58.52
35507;BME280;36461;52.018;21.036;2023-04-06T05:25:18;100762.42;;;1.73;58.41
35507;BME280;36461;52.018;21.036;2023-04-06T05:27:47;100763.04;;;1.82;58.01
35507;BME280;36461;52.018;21.036;2023-04-06T05:30:35;100756.99;;;1.92;57.90
35507;BME280;36461;52.018;21.036;2023-04-06T05:33:04;100758.98;;;2.04;57.83
35507;BME280;36461;52.018;21.036;2023-04-06T05:35:46;100757.21;;;2.17;57.49
35507;BME280;36461;52.018;21.036;2023-04-06T05:38:14;100748.95;;;2.33;57.02
35507;BME280;36461;52.018;21.036;2023-04-06T05:40:42;100750.77;;;2.47;56.76
35507;BME280;36461;52.018;21.036;2023-04-06T05:43:13;100746.76;;;2.59;56.54
35507;BME280;36461;52.018;21.036;2023-04-06T05:45:46;100751.80;;;2.74;56.34
35507;BME280;36461;52.018;21.036;2023-04-06T05:48:14;100748.78;;;2.85;55.64
35507;BME280;36461;52.018;21.036;2023-04-06T05:50:42;100751.23;;;2.95;55.85
35507;BME280;36461;52.018;21.036;2023-04-06T05:53:12;100744.95;;;3.08;55.68
35507;BME280;36461;52.018;21.036;2023-04-06T05:55:42;100747.58;;;3.18;55.43
35507;BME280;36461;52.018;21.036;2023-04-06T05:58:14;100748.59;;;3.19;54.96
35507;BME280;36461;52.018;21.036;2023-04-06T06:00:43;100744.82;;;3.15;54.81
35507;BME280;36461;52.018;21.036;2023-04-06T06:03:14;100748.74;;;3.15;54.65
35507;BME280;36461;52.018;21.036;2023-04-06T06:05:47;100744.12;;;3.14;54.50
35507;BME280;36461;52.018;21.036;2023-04-06T06:08:20;100745.85;;;3.15;54.66
35507;BME280;36461;52.018;21.036;2023-04-06T06:10:48;100735.28;;;3.30;55.06
35507;BME280;36461;52.018;21.036;2023-04-06T06:13:19;100737.89;;;3.42;54.57
35507;BME280;36461;52.018;21.036;2023-04-06T06:15:47;100732.09;;;3.44;53.83
35507;BME280;36461;52.018;21.036;2023-04-06T06:18:17;100726.59;;;3.42;53.79
35507;BME280;36461;52.018;21.036;2023-04-06T06:20:46;100723.36;;;3.44;54.10
35507;BME280;36461;52.018;21.036;2023-04-06T06:23:14;100725.25;;;3.49;53.78
35507;BME280;36461;52.018;21.036;2023-04-06T06:25:42;100721.66;;;3.51;53.82
35507;BME280;36461;52.018;21.036;2023-04-06T06:28:10;100721.48;;;3.50;53.55
35507;BME280;36461;52.018;21.036;2023-04-06T06:30:39;100724.07;;;3.53;53.68
35507;BME280;36461;52.018;21.036;2023-04-06T06:33:07;100721.68;;;3.54;53.50
35507;BME280;36461;52.018;21.036;2023-04-06T06:35:35;100721.68;;;3.58;53.30
35507;BME280;36461;52.018;21.036;2023-04-06T06:38:03;100722.38;;;3.62;53.05
35507;BME280;36461;52.018;21.036;2023-04-06T06:40:33;100718.10;;;3.65;52.71
35507;BME280;36461;52.018;21.036;2023-04-06T06:43:01;100716.58;;;3.73;52.79
35507;BME280;36461;52.018;21.036;2023-04-06T06:45:37;100710.95;;;3.87;53.24
35507;BME280;36461;52.018;21.036;2023-04-06T06:48:05;100715.40;;;3.97;53.17
35507;BME280;36461;52.018;21.036;2023-04-06T06:50:33;100716.42;;;4.07;53.40
35507;BME280;36461;52.018;21.036;2023-04-06T06:53:01;100716.41;;;4.17;52.99
35507;BME280;36461;52.018;21.036;2023-04-06T06:55:30;100723.78;;;4.24;52.87
35507;BME280;36461;52.018;21.036;2023-04-06T06:57:58;100723.44;;;4.30;53.43
35507;BME280;36461;52.018;21.036;2023-04-06T07:00:26;100722.21;;;4.42;53.27
35507;BME280;36461;52.018;21.036;2023-04-06T07:02:55;100721.86;;;4.45;53.09
35507;BME280;36461;52.018;21.036;2023-04-06T07:05:23;100726.32;;;4.49;53.00
35507;BME280;36461;52.018;21.036;2023-04-06T07:07:57;100727.34;;;4.46;52.83
35507;BME280;36461;52.018;21.036;2023-04-06T07:10:26;100724.11;;;4.37;53.01
35507;BME280;36461;52.018;21.036;2023-04-06T07:12:54;100723.41;;;4.37;53.19
35507;BME280;36461;52.018;21.036;2023-04-06T07:15:22;100715.17;;;4.44;53.17
35507;BME280;36461;52.018;21.036;2023-04-06T07:17:51;100713.29;;;4.52;52.92
35507;BME280;36461;52.018;21.036;2023-04-06T07:20:20;100715.50;;;4.55;52.93
35507;BME280;36461;52.018;21.036;2023-04-06T07:22:48;100711.39;;;4.55;52.94
35507;BME280;36461;52.018;21.036;2023-04-06T07:25:16;100711.71;;;4.66;53.39
35507;BME280;36461;52.018;21.036;2023-04-06T07:27:44;100714.39;;;4.85;53.47
35507;BME280;36461;52.018;21.036;2023-04-06T07:30:13;100709.36;;;5.02;53.19
35507;BME280;36461;52.018;21.036;2023-04-06T07:32:41;100708.78;;;5.18;53.17
35507;BME280;36461;52.018;21.036;2023-04-06T07:35:09;100711.83;;;5.25;52.79
35507;BME280;36461;52.018;21.036;2023-04-06T07:37:37;100709.45;;;5.20;52.59
35507;BME280;36461;52.018;21.036;2023-04-06T07:40:06;100708.63;;;5.14;52.60
35507;BME280;36461;52.018;21.036;2023-04-06T07:42:35;100708.12;;;5.10;52.22
35507;BME280;36461;52.018;21.036;2023-04-06T07:45:04;100709.50;;;5.09;51.90
35507;BME280;36461;52.018;21.036;2023-04-06T07:47:33;100702.14;;;5.06;51.80
35507;BME280;36461;52.018;21.036;2023-04-06T07:50:01;100703.18;;;5.04;52.07
35507;BME280;36461;52.018;21.036;2023-04-06T07:52:29;100704.88;;;5.09;52.11
35507;BME280;36461;52.018;21.036;2023-04-06T07:55:00;100708.12;;;5.13;51.99
35507;BME280;36461;52.018;21.036;2023-04-06T07:57:28;100704.67;;;5.16;52.15
35507;BME280;36461;52.018;21.036;2023-04-06T07:59:56;100708.42;;;5.22;51.90
35507;BME280;36461;52.018;21.036;2023-04-06T08:02:24;100704.85;;;5.15;52.05
35507;BME280;36461;52.018;21.036;2023-04-06T08:04:53;100708.61;;;5.15;52.54
35507;BME280;36461;52.018;21.036;2023-04-06T08:07:21;100710.23;;;5.00;52.55
35507;BME280;36461;52.018;21.036;2023-04-06T08:09:50;100701.70;;;4.89;52.92
35507;BME280;36461;52.018;21.036;2023-04-06T08:12:18;100700.16;;;4.83;55.05
35507;BME280;36461;52.018;21.036;2023-04-06T08:14:46;100701.70;;;4.86;54.95
35507;BME280;36461;52.018;21.036;2023-04-06T08:17:15;100703.20;;;4.98;54.71
35507;BME280;36461;52.018;21.036;2023-04-06T08:19:43;100695.98;;;5.02;54.74
35507;BME280;36461;52.018;21.036;2023-04-06T08:22:12;100694.23;;;5.09;54.47
35507;BME280;36461;52.018;21.036;2023-04-06T08:24:40;100694.05;;;5.10;54.17
35507;BME280;36461;52.018;21.036;2023-04-06T08:27:08;100690.48;;;5.07;54.17
35507;BME280;36461;52.018;21.036;2023-04-06T08:29:36;100685.85;;;5.06;54.37
35507;BME280;36461;52.018;21.036;2023-04-06T08:32:04;100694.40;;;5.09;54.14
35507;BME280;36461;52.018;21.036;2023-04-06T08:34:33;100689.96;;;5.06;53.98
35507;BME280;36461;52.018;21.036;2023-04-06T08:37:01;100688.39;;;5.12;54.14
35507;BME280;36461;52.018;21.036;2023-04-06T08:39:29;100685.82;;;5.11;54.00
35507;BME280;36461;52.018;21.036;2023-04-06T08:41:58;100687.20;;;5.12;54.18
35507;BME280;36461;52.018;21.036;2023-04-06T08:44:29;100696.30;;;5.06;54.05
35507;BME280;36461;52.018;21.036;2023-04-06T08:46:59;100686.60;;;4.89;54.73
35507;BME280;36461;52.018;21.036;2023-04-06T08:49:27;100681.45;;;4.92;55.66
35507;BME280;36461;52.018;21.036;2023-04-06T08:51:55;100685.19;;;5.00;55.71
35507;BME280;36461;52.018;21.036;2023-04-06T08:54:25;100680.05;;;4.96;56.13
35507;BME280;36461;52.018;21.036;2023-04-06T08:56:53;100684.52;;;4.98;55.95
35507;BME280;36461;52.018;21.036;2023-04-06T08:59:23;100681.79;;;4.93;56.11
35507;BME280;36461;52.018;21.036;2023-04-06T09:01:53;100674.39;;;4.96;56.76
35507;BME280;36461;52.018;21.036;2023-04-06T09:04:23;100669.92;;;5.00;56.78
35507;BME280;36461;52.018;21.036;2023-04-06T09:06:51;100672.69;;;4.96;56.85
35507;BME280;36461;52.018;21.036;2023-04-06T09:09:20;100667.42;;;4.79;57.24
35507;BME280;36461;52.018;21.036;2023-04-06T09:11:52;100667.14;;;4.64;57.83
35507;BME280;36461;52.018;21.036;2023-04-06T09:14:37;100668.52;;;4.62;58.10
35507;BME280;36461;52.018;21.036;2023-04-06T09:17:06;100663.74;;;4.54;58.30
35507;BME280;36461;52.018;21.036;2023-04-06T09:19:45;100661.52;;;4.53;58.16
35507;BME280;36461;52.018;21.036;2023-04-06T09:22:14;100654.48;;;4.57;58.02
35507;BME280;36461;52.018;21.036;2023-04-06T09:24:45;100649.16;;;4.62;57.98
35507;BME280;36461;52.018;21.036;2023-04-06T09:27:15;100654.46;;;4.66;57.74
35507;BME280;36461;52.018;21.036;2023-04-06T09:29:43;100650.54;;;4.61;57.73
35507;BME280;36461;52.018;21.036;2023-04-06T09:32:12;100647.48;;;4.50;57.97
35507;BME280;36461;52.018;21.036;2023-04-06T09:34:44;100650.22;;;4.49;58.40
35507;BME280;36461;52.018;21.036;2023-04-06T09:37:18;100642.35;;;4.47;58.52
35507;BME280;36461;52.018;21.036;2023-04-06T09:39:47;100640.80;;;4.47;58.84
35507;BME280;36461;52.018;21.036;2023-04-06T09:42:25;100639.41;;;4.51;59.69
35507;BME280;36461;52.018;21.036;2023-04-06T09:44:54;100650.41;;;4.39;59.36
35507;BME280;36461;52.018;21.036;2023-04-06T09:47:23;100648.06;;;4.11;60.16
35507;BME280;36461;52.018;21.036;2023-04-06T09:49:57;100654.95;;;3.90;63.48
35507;BME280;36461;52.018;21.036;2023-04-06T09:52:34;100654.42;;;3.68;64.95
35507;BME280;36461;52.018;21.036;2023-04-06T09:55:05;100643.98;;;3.48;64.95
35507;BME280;36461;52.018;21.036;2023-04-06T10:00:07;100639.15;;;3.19;67.82
35507;BME280;36461;52.018;21.036;2023-04-06T10:05:52;100628.00;;;3.12;71.12
35507;BME280;36461;52.018;21.036;2023-04-06T10:08:24;100627.48;;;3.05;71.27
35507;BME280;36461;52.018;21.036;2023-04-06T10:10:54;100622.67;;;3.02;71.20
35507;BME280;36461;52.018;21.036;2023-04-06T10:13:24;100622.17;;;3.04;71.31
35507;BME280;36461;52.018;21.036;2023-04-06T10:15:54;100619.58;;;2.93;72.33
35507;BME280;36461;52.018;21.036;2023-04-06T10:18:22;100615.10;;;2.82;71.93
35507;BME280;36461;52.018;21.036;2023-04-06T10:20:57;100605.85;;;2.77;72.88
35507;BME280;36461;52.018;21.036;2023-04-06T10:23:37;100600.92;;;2.81;73.51
35507;BME280;36461;52.018;21.036;2023-04-06T10:26:16;100596.83;;;2.85;73.72
35507;BME280;36461;52.018;21.036;2023-04-06T10:28:46;100591.89;;;3.02;74.64
35507;BME280;36461;52.018;21.036;2023-04-06T10:31:15;100600.48;;;3.17;74.47
35507;BME280;36461;52.018;21.036;2023-04-06T10:33:56;100594.32;;;3.14;73.97
35507;BME280;36461;52.018;21.036;2023-04-06T10:36:27;100593.47;;;3.14;73.99
35507;BME280;36461;52.018;21.036;2023-04-06T10:39:05;100598.26;;;3.16;74.14
35507;BME280;36461;52.018;21.036;2023-04-06T10:41:42;100596.73;;;3.10;74.50
35507;BME280;36461;52.018;21.036;2023-04-06T10:44:41;100593.64;;;3.09;75.34
35507;BME280;36461;52.018;21.036;2023-04-06T10:47:16;100584.22;;;3.08;75.77
35507;BME280;36461;52.018;21.036;2023-04-06T10:49:48;100584.75;;;3.15;75.97
35507;BME280;36461;52.018;21.036;2023-04-06T10:52:16;100579.62;;;3.10;75.57
35507;BME280;36461;52.018;21.036;2023-04-06T10:54:44;100578.92;;;3.13;75.71
35507;BME280;36461;52.018;21.036;2023-04-06T10:57:15;100580.80;;;3.05;75.78
35507;BME280;36461;52.018;21.036;2023-04-06T10:59:44;100577.37;;;2.98;76.05
35507;BME280;36461;52.018;21.036;2023-04-06T11:02:19;100574.10;;;2.92;77.02
35507;BME280;36461;52.018;21.036;2023-04-06T11:04:55;100573.91;;;2.81;76.91
35507;BME280;36461;52.018;21.036;2023-04-06T11:07:25;100563.48;;;2.77;77.27
35507;BME280;36461;52.018;21.036;2023-04-06T11:09:54;100560.25;;;2.85;78.45
35507;BME280;36461;52.018;21.036;2023-04-06T11:12:42;100568.82;;;2.98;78.87
35507;BME280;36461;52.018;21.036;2023-04-06T11:15:10;100561.63;;;2.97;78.67
35507;BME280;36461;52.018;21.036;2023-04-06T11:17:39;100558.39;;;2.94;79.10
35507;BME280;36461;52.018;21.036;2023-04-06T11:20:10;100558.21;;;3.01;79.25
35507;BME280;36461;52.018;21.036;2023-04-06T11:22:50;100562.31;;;3.03;79.70
35507;BME280;36461;52.018;21.036;2023-04-06T11:25:18;100560.44;;;3.02;79.50
35507;BME280;36461;52.018;21.036;2023-04-06T11:27:47;100559.92;;;2.94;79.39
35507;BME280;36461;52.018;21.036;2023-04-06T11:30:16;100560.75;;;2.85;79.56
35507;BME280;36461;52.018;21.036;2023-04-06T11:32:45;100559.38;;;2.78;79.56
35507;BME280;36461;52.018;21.036;2023-04-06T11:35:22;100549.11;;;2.76;80.16
35507;BME280;36461;52.018;21.036;2023-04-06T11:37:50;100550.14;;;2.78;80.13
35507;BME280;36461;52.018;21.036;2023-04-06T11:40:22;100543.98;;;2.77;80.16
35507;BME280;36461;52.018;21.036;2023-04-06T11:42:52;100543.65;;;2.80;80.66
35507;BME280;36461;52.018;21.036;2023-04-06T11:45:22;100541.45;;;2.85;80.66
35507;BME280;36461;52.018;21.036;2023-04-06T11:47:58;100539.91;;;2.85;80.46
35507;BME280;36461;52.018;21.036;2023-04-06T11:50:32;100534.95;;;2.90;80.64
35507;BME280;36461;52.018;21.036;2023-04-06T11:53:02;100532.05;;;2.95;80.59
35507;BME280;36461;52.018;21.036;2023-04-06T11:55:37;100528.30;;;2.95;80.64
35507;BME280;36461;52.018;21.036;2023-04-06T11:58:06;100531.55;;;2.98;80.46
35507;BME280;36461;52.018;21.036;2023-04-06T12:00:35;100525.40;;;3.01;80.68
35507;BME280;36461;52.018;21.036;2023-04-06T12:03:05;100514.29;;;3.03;80.20
35507;BME280;36461;52.018;21.036;2023-04-06T12:05:34;100512.40;;;3.07;80.20
35507;BME280;36461;52.018;21.036;2023-04-06T12:08:02;100509.16;;;3.11;80.31
35507;BME280;36461;52.018;21.036;2023-04-06T12:10:30;100504.20;;;3.15;80.21
35507;BME280;36461;52.018;21.036;2023-04-06T12:12:58;100508.66;;;3.25;80.45
35507;BME280;36461;52.018;21.036;2023-04-06T12:15:26;100514.13;;;3.30;80.03
35507;BME280;36461;52.018;21.036;2023-04-06T12:17:55;100512.93;;;3.30;79.43
35507;BME280;36461;52.018;21.036;2023-04-06T12:20:23;100516.86;;;3.30;79.64
35507;BME280;36461;52.018;21.036;2023-04-06T12:22:54;100511.89;;;3.26;79.50
35507;BME280;36461;52.018;21.036;2023-04-06T12:25:22;100504.20;;;3.28;79.74
35507;BME280;36461;52.018;21.036;2023-04-06T12:27:50;100505.39;;;3.25;79.15
35507;BME280;36461;52.018;21.036;2023-04-06T12:30:19;100500.95;;;3.25;79.47
35507;BME280;36461;52.018;21.036;2023-04-06T12:32:47;100502.33;;;3.23;79.14
35507;BME280;36461;52.018;21.036;2023-04-06T12:35:18;100496.52;;;3.25;79.45
35507;BME280;36461;52.018;21.036;2023-04-06T12:37:46;100503.69;;;3.25;79.37
35507;BME280;36461;52.018;21.036;2023-04-06T12:40:14;100502.65;;;3.20;79.58
35507;BME280;36461;52.018;21.036;2023-04-06T12:42:42;100504.03;;;3.23;79.69
35507;BME280;36461;52.018;21.036;2023-04-06T12:45:11;100504.03;;;3.19;79.72
35507;BME280;36461;52.018;21.036;2023-04-06T12:47:39;100495.83;;;3.14;79.87
35507;BME280;36461;52.018;21.036;2023-04-06T12:50:08;100493.43;;;3.13;80.34
35507;BME280;36461;52.018;21.036;2023-04-06T12:52:36;100492.40;;;3.15;80.53
35507;BME280;36461;52.018;21.036;2023-04-06T12:55:04;100489.84;;;3.17;80.55
35507;BME280;36461;52.018;21.036;2023-04-06T12:57:33;100488.64;;;3.14;80.52
35507;BME280;36461;52.018;21.036;2023-04-06T13:00:03;100479.23;;;3.16;81.17
35507;BME280;36461;52.018;21.036;2023-04-06T13:02:35;100474.10;;;3.12;80.60
35507;BME280;36461;52.018;21.036;2023-04-06T13:05:04;100471.54;;;3.03;80.29
35507;BME280;36461;52.018;21.036;2023-04-06T13:07:32;100465.20;;;2.97;80.59
35507;BME280;36461;52.018;21.036;2023-04-06T13:10:00;100458.90;;;2.97;81.26
35507;BME280;36461;52.018;21.036;2023-04-06T13:12:28;100461.28;;;3.03;81.63
35507;BME280;36461;52.018;21.036;2023-04-06T13:14:56;100460.42;;;3.12;82.14
35507;BME280;36461;52.018;21.036;2023-04-06T13:17:27;100458.20;;;3.07;81.73
35507;BME280;36461;52.018;21.036;2023-04-06T13:19:55;100458.20;;;3.05;82.82